Beach, ND

5:50 PM MDT on August 17, 2017 (GMT -0600)
Beach | | Change Station
Active Advisory: Special Statement

Elev 2756 ft 46.93 °N, 103.98 °W | Updated 15 minutes ago

Thunderstorm
Thunderstorm
75 °F
Feels Like 75 °F
N
9
Wind Variable Wind from NNE
Gusts 23 mph

Today
High -- | Low -- °F
--% Chance of Precip.
Yesterday
High -- | Low -- °F
Precip. -- in
Pressure 29.97 in
Visibility 9.0 miles
Clouds Mostly Cloudy 10000 ft
Dew Point 45 °F
Humidity 34%
Rainfall 0.00 in
Snow Depth Not available.
5:56 AM 8:02 PM
Waning Crescent, 18% visible
METAR K20U 172335Z AUTO 03008G20KT 9SM TS BKN100 24/07 A2997 RMK AO2 LTG DSNT SW-N
Pressure 29.97 in
Visibility 9.0 miles
Clouds Mostly Cloudy 10000 ft
Dew Point 45 °F
Humidity 34%
Rainfall 0.00 in
Snow Depth Not available.
5:56 AM 8:02 PM
Waning Crescent, 18% visible
METAR K20U 172335Z AUTO 03008G20KT 9SM TS BKN100 24/07 A2997 RMK AO2 LTG DSNT SW-N

Get Your Daily Forecast Email!

Thanks for signing up!

Be on the lookout for a verification email in your inbox.

You'll start receiving severe weather alerts in your inbox..

×

10-Day Weather Forecast

Almanac

Astronomy

Aug. 17, 2017 Rise Set
Actual Time
Civil Twilight
Nautical Twilight
Astronomical Twilight
Moon
Length of Visible Light
Length of Day
Tomorrow will be .
, % of the Moon is Illuminated

Today's Extremes

State Highs State Lows

Community

WunderPhotos

Category 6

Welcome to Category 6. This is the collective home for Weather Underground's featured writeups by Dr. Jeff Masters (right), Bob Henson (left), Chris Burt, and other regular contributors.

Nearby

Air Quality

  Air Quality AQ Index Pollutant
Not available.

Snow Depth

Station Depth Elevation

Earthquake Activity

City Distance Mag. Time & Date
Minimum magnitude displayed is 2.5.

Coastal Water Temperatures

Place Temperature

Stations

Nearby Weather Stations

Station Location Temp. Windchill Dew Point Humidity Wind Precip. Elev Updated Type
                   

Watches & Warnings

Special Statement
Issued: 5:27 PM MDT Aug. 17, 2017 – National Weather Service

... A strong thunderstorm will affect central Golden Valley County
until 615 PM MDT...

At 526 PM MDT, Doppler radar was tracking a strong thunderstorm over
Wibaux, moving southeast at 25 mph.

Wind gusts to 50 mph will be possible with this storm.

Locations impacted include...
beach and Sentinel Butte.

Lat... Lon 4701 10405 4690 10361 4666 10379 4677 10405
time... Mot... loc 2326z 296deg 23kt 4695 10420


Hargrove


527 PM MDT Thu Aug 17 2017

... A strong thunderstorm will affect central Golden Valley County
until 615 PM MDT...

At 526 PM MDT, Doppler radar was tracking a strong thunderstorm over
Wibaux, moving southeast at 25 mph.

Wind gusts to 50 mph will be possible with this storm.

Locations impacted include...
beach and Sentinel Butte.

Lat... Lon 4701 10405 4690 10361 4666 10379 4677 10405
time... Mot... loc 2326z 296deg 23kt 4695 10420


Hargrove